sensor_id;sensor_type;location;lat;lon;timestamp;temperature;humidity
11091;DHT22;5599;52.210;21.046;2022-11-11T00:01:10;9.10;1.00
11091;DHT22;5599;52.210;21.046;2022-11-11T00:03:58;9.00;1.00
11091;DHT22;5599;52.210;21.046;2022-11-11T00:06:46;9.00;1.00
11091;DHT22;5599;52.210;21.046;2022-11-11T00:09:34;9.10;1.00
11091;DHT22;5599;52.210;21.046;2022-11-11T00:12:22;9.10;1.00
11091;DHT22;5599;52.210;21.046;2022-11-11T00:15:14;9.10;1.00
11091;DHT22;5599;52.210;21.046;2022-11-11T00:18:02;9.10;1.00
11091;DHT22;5599;52.210;21.046;2022-11-11T00:21:12;9.10;1.00
11091;DHT22;5599;52.210;21.046;2022-11-11T00:24:29;9.20;2.70
11091;DHT22;5599;52.210;21.046;2022-11-11T00:27:31;9.10;1.00
11091;DHT22;5599;52.210;21.046;2022-11-11T00:30:20;9.10;1.00
11091;DHT22;5599;52.210;21.046;2022-11-11T00:33:07;9.20;1.00
11091;DHT22;5599;52.210;21.046;2022-11-11T00:35:55;9.20;1.00
11091;DHT22;5599;52.210;21.046;2022-11-11T00:38:42;9.20;1.00
11091;DHT22;5599;52.210;21.046;2022-11-11T00:41:33;9.20;1.00
11091;DHT22;5599;52.210;21.046;2022-11-11T00:44:21;9.10;1.00
11091;DHT22;5599;52.210;21.046;2022-11-11T00:47:10;9.10;1.00
11091;DHT22;5599;52.210;21.046;2022-11-11T00:50:19;9.00;1.00
11091;DHT22;5599;52.210;21.046;2022-11-11T00:53:26;9.00;1.00
11091;DHT22;5599;52.210;21.046;2022-11-11T00:56:14;9.00;1.00
11091;DHT22;5599;52.210;21.046;2022-11-11T00:59:03;9.00;1.00
11091;DHT22;5599;52.210;21.046;2022-11-11T01:01:51;9.00;1.00
11091;DHT22;5599;52.210;21.046;2022-11-11T01:04:41;9.10;1.00
11091;DHT22;5599;52.210;21.046;2022-11-11T01:07:29;9.10;1.00
11091;DHT22;5599;52.210;21.046;2022-11-11T01:10:18;9.00;1.00
11091;DHT22;5599;52.210;21.046;2022-11-11T01:13:21;9.10;1.00
11091;DHT22;5599;52.210;21.046;2022-11-11T01:16:13;9.10;1.00
11091;DHT22;5599;52.210;21.046;2022-11-11T01:19:01;9.20;1.00
11091;DHT22;5599;52.210;21.046;2022-11-11T01:21:50;9.20;1.00
11091;DHT22;5599;52.210;21.046;2022-11-11T01:24:38;9.20;1.00
11091;DHT22;5599;52.210;21.046;2022-11-11T01:27:25;9.20;1.00
11091;DHT22;5599;52.210;21.046;2022-11-11T01:30:14;9.20;1.00
11091;DHT22;5599;52.210;21.046;2022-11-11T01:33:02;9.30;1.00
11091;DHT22;5599;52.210;21.046;2022-11-11T01:35:50;9.40;1.00
11091;DHT22;5599;52.210;21.046;2022-11-11T01:38:40;9.40;1.00
11091;DHT22;5599;52.210;21.046;2022-11-11T01:41:30;9.50;1.00
11091;DHT22;5599;52.210;21.046;2022-11-11T01:44:42;9.60;1.00
11091;DHT22;5599;52.210;21.046;2022-11-11T01:47:34;9.60;1.00
11091;DHT22;5599;52.210;21.046;2022-11-11T01:50:56;9.60;1.00
11091;DHT22;5599;52.210;21.046;2022-11-11T01:53:47;9.60;1.00
11091;DHT22;5599;52.210;21.046;2022-11-11T01:56:36;9.70;1.00
11091;DHT22;5599;52.210;21.046;2022-11-11T01:59:25;9.70;1.00
11091;DHT22;5599;52.210;21.046;2022-11-11T02:02:17;9.70;1.00
11091;DHT22;5599;52.210;21.046;2022-11-11T02:05:09;9.80;1.00
11091;DHT22;5599;52.210;21.046;2022-11-11T02:08:18;9.70;1.00
11091;DHT22;5599;52.210;21.046;2022-11-11T02:11:21;9.80;1.00
11091;DHT22;5599;52.210;21.046;2022-11-11T02:14:24;9.80;1.00
11091;DHT22;5599;52.210;21.046;2022-11-11T02:17:27;9.80;1.00
11091;DHT22;5599;52.210;21.046;2022-11-11T02:20:20;9.80;1.00
11091;DHT22;5599;52.210;21.046;2022-11-11T02:23:13;9.80;1.00
11091;DHT22;5599;52.210;21.046;2022-11-11T02:26:05;9.90;1.00
11091;DHT22;5599;52.210;21.046;2022-11-11T02:28:54;9.90;1.00
11091;DHT22;5599;52.210;21.046;2022-11-11T02:31:42;9.80;1.00
11091;DHT22;5599;52.210;21.046;2022-11-11T02:34:30;9.90;1.00
11091;DHT22;5599;52.210;21.046;2022-11-11T02:37:21;9.80;1.00
11091;DHT22;5599;52.210;21.046;2022-11-11T02:40:12;9.90;1.00
11091;DHT22;5599;52.210;21.046;2022-11-11T02:43:02;9.80;1.00
11091;DHT22;5599;52.210;21.046;2022-11-11T02:45:50;9.80;1.00
11091;DHT22;5599;52.210;21.046;2022-11-11T02:48:38;9.70;1.00
11091;DHT22;5599;52.210;21.046;2022-11-11T02:51:26;9.70;1.00
11091;DHT22;5599;52.210;21.046;2022-11-11T02:54:14;9.70;1.00
11091;DHT22;5599;52.210;21.046;2022-11-11T02:57:01;9.60;1.00
11091;DHT22;5599;52.210;21.046;2022-11-11T02:59:58;9.60;1.00
11091;DHT22;5599;52.210;21.046;2022-11-11T03:02:46;9.60;1.00
11091;DHT22;5599;52.210;21.046;2022-11-11T03:05:35;9.50;1.00
11091;DHT22;5599;52.210;21.046;2022-11-11T03:08:22;9.50;1.00
11091;DHT22;5599;52.210;21.046;2022-11-11T03:11:10;9.40;1.00
11091;DHT22;5599;52.210;21.046;2022-11-11T03:13:59;9.40;1.00
11091;DHT22;5599;52.210;21.046;2022-11-11T03:16:48;9.30;1.00
11091;DHT22;5599;52.210;21.046;2022-11-11T03:19:54;9.30;1.00
11091;DHT22;5599;52.210;21.046;2022-11-11T03:23:03;9.30;1.00
11091;DHT22;5599;52.210;21.046;2022-11-11T03:25:51;9.30;1.00
11091;DHT22;5599;52.210;21.046;2022-11-11T03:28:43;9.30;1.00
11091;DHT22;5599;52.210;21.046;2022-11-11T03:31:31;9.40;1.00
11091;DHT22;5599;52.210;21.046;2022-11-11T03:34:20;9.40;1.00
11091;DHT22;5599;52.210;21.046;2022-11-11T03:37:09;9.30;1.00
11091;DHT22;5599;52.210;21.046;2022-11-11T03:40:15;9.30;1.00
11091;DHT22;5599;52.210;21.046;2022-11-11T03:43:03;9.30;1.00
11091;DHT22;5599;52.210;21.046;2022-11-11T03:45:51;9.30;1.00
11091;DHT22;5599;52.210;21.046;2022-11-11T03:48:39;9.30;1.00
11091;DHT22;5599;52.210;21.046;2022-11-11T03:51:28;9.30;1.00
11091;DHT22;5599;52.210;21.046;2022-11-11T03:54:16;9.30;1.00
11091;DHT22;5599;52.210;21.046;2022-11-11T03:57:04;9.30;1.00
11091;DHT22;5599;52.210;21.046;2022-11-11T04:00:10;9.20;1.00
11091;DHT22;5599;52.210;21.046;2022-11-11T04:03:04;9.30;1.00
11091;DHT22;5599;52.210;21.046;2022-11-11T04:06:10;9.30;1.00
11091;DHT22;5599;52.210;21.046;2022-11-11T04:09:17;9.30;1.00
11091;DHT22;5599;52.210;21.046;2022-11-11T04:12:22;9.30;1.00
11091;DHT22;5599;52.210;21.046;2022-11-11T04:15:11;9.30;1.00
11091;DHT22;5599;52.210;21.046;2022-11-11T04:18:16;9.30;1.00
11091;DHT22;5599;52.210;21.046;2022-11-11T04:21:24;9.30;1.00
11091;DHT22;5599;52.210;21.046;2022-11-11T04:24:30;9.30;1.00
11091;DHT22;5599;52.210;21.046;2022-11-11T04:27:36;9.30;1.00
11091;DHT22;5599;52.210;21.046;2022-11-11T04:30:23;9.30;1.00
11091;DHT22;5599;52.210;21.046;2022-11-11T04:33:10;9.30;1.00
11091;DHT22;5599;52.210;21.046;2022-11-11T04:35:58;9.40;1.00
11091;DHT22;5599;52.210;21.046;2022-11-11T04:38:45;9.30;1.00
11091;DHT22;5599;52.210;21.046;2022-11-11T04:41:52;9.30;1.00
11091;DHT22;5599;52.210;21.046;2022-11-11T04:44:53;9.30;1.00
11091;DHT22;5599;52.210;21.046;2022-11-11T04:48:00;9.20;1.00
11091;DHT22;5599;52.210;21.046;2022-11-11T04:50:49;9.30;1.00
11091;DHT22;5599;52.210;21.046;2022-11-11T04:53:36;9.30;1.00
11091;DHT22;5599;52.210;21.046;2022-11-11T04:56:24;9.30;1.00
11091;DHT22;5599;52.210;21.046;2022-11-11T04:59:30;9.30;1.00
11091;DHT22;5599;52.210;21.046;2022-11-11T05:02:18;9.30;1.00
11091;DHT22;5599;52.210;21.046;2022-11-11T05:05:24;9.30;1.00
11091;DHT22;5599;52.210;21.046;2022-11-11T05:08:12;9.20;1.00
11091;DHT22;5599;52.210;21.046;2022-11-11T05:11:17;9.20;1.00
11091;DHT22;5599;52.210;21.046;2022-11-11T05:14:06;9.30;1.00
11091;DHT22;5599;52.210;21.046;2022-11-11T05:17:13;9.20;1.00
11091;DHT22;5599;52.210;21.046;2022-11-11T05:20:19;9.20;1.00
11091;DHT22;5599;52.210;21.046;2022-11-11T05:23:24;9.20;1.00
11091;DHT22;5599;52.210;21.046;2022-11-11T05:26:32;9.30;1.00
11091;DHT22;5599;52.210;21.046;2022-11-11T05:29:19;9.30;1.00
11091;DHT22;5599;52.210;21.046;2022-11-11T05:32:07;9.30;1.00
11091;DHT22;5599;52.210;21.046;2022-11-11T05:34:56;9.30;1.00
11091;DHT22;5599;52.210;21.046;2022-11-11T05:37:44;9.30;1.00
11091;DHT22;5599;52.210;21.046;2022-11-11T05:40:54;9.40;1.00
11091;DHT22;5599;52.210;21.046;2022-11-11T05:43:42;9.30;1.00
11091;DHT22;5599;52.210;21.046;2022-11-11T05:46:30;9.40;1.00
11091;DHT22;5599;52.210;21.046;2022-11-11T05:49:17;9.40;1.00
11091;DHT22;5599;52.210;21.046;2022-11-11T05:52:08;9.40;1.00
11091;DHT22;5599;52.210;21.046;2022-11-11T05:54:55;9.40;1.00
11091;DHT22;5599;52.210;21.046;2022-11-11T05:57:43;9.50;1.00
11091;DHT22;5599;52.210;21.046;2022-11-11T06:00:31;9.50;1.00
11091;DHT22;5599;52.210;21.046;2022-11-11T06:03:19;9.50;1.00
11091;DHT22;5599;52.210;21.046;2022-11-11T06:06:07;9.50;1.00
11091;DHT22;5599;52.210;21.046;2022-11-11T06:08:56;9.50;1.00
11091;DHT22;5599;52.210;21.046;2022-11-11T06:11:44;9.50;1.00
11091;DHT22;5599;52.210;21.046;2022-11-11T06:14:32;9.60;1.00
11091;DHT22;5599;52.210;21.046;2022-11-11T06:17:19;9.60;1.00
11091;DHT22;5599;52.210;21.046;2022-11-11T06:20:08;9.60;1.00
11091;DHT22;5599;52.210;21.046;2022-11-11T06:22:56;9.60;1.00
11091;DHT22;5599;52.210;21.046;2022-11-11T06:25:45;9.70;1.00
11091;DHT22;5599;52.210;21.046;2022-11-11T06:28:52;9.60;1.00
11091;DHT22;5599;52.210;21.046;2022-11-11T06:31:41;9.70;1.00
11091;DHT22;5599;52.210;21.046;2022-11-11T06:34:30;9.70;1.00
11091;DHT22;5599;52.210;21.046;2022-11-11T06:37:18;9.70;1.00
11091;DHT22;5599;52.210;21.046;2022-11-11T06:40:07;9.70;1.00
11091;DHT22;5599;52.210;21.046;2022-11-11T06:42:57;9.80;1.00
11091;DHT22;5599;52.210;21.046;2022-11-11T06:45:48;9.90;1.00
11091;DHT22;5599;52.210;21.046;2022-11-11T06:48:36;9.90;1.00
11091;DHT22;5599;52.210;21.046;2022-11-11T06:51:27;9.80;99.90
11091;DHT22;5599;52.210;21.046;2022-11-11T06:54:15;9.90;1.00
11091;DHT22;5599;52.210;21.046;2022-11-11T06:57:03;9.90;1.00
11091;DHT22;5599;52.210;21.046;2022-11-11T06:59:55;10.00;99.90
11091;DHT22;5599;52.210;21.046;2022-11-11T07:02:43;10.00;1.00
11091;DHT22;5599;52.210;21.046;2022-11-11T07:05:31;10.00;99.90
11091;DHT22;5599;52.210;21.046;2022-11-11T07:08:19;10.00;99.90
11091;DHT22;5599;52.210;21.046;2022-11-11T07:11:08;10.00;99.90
11091;DHT22;5599;52.210;21.046;2022-11-11T07:14:03;10.00;99.90
11091;DHT22;5599;52.210;21.046;2022-11-11T07:16:52;10.10;1.00
11091;DHT22;5599;52.210;21.046;2022-11-11T07:19:41;10.10;99.90
11091;DHT22;5599;52.210;21.046;2022-11-11T07:22:28;10.10;99.90
11091;DHT22;5599;52.210;21.046;2022-11-11T07:25:22;10.20;99.90
11091;DHT22;5599;52.210;21.046;2022-11-11T07:28:11;10.20;99.90
11091;DHT22;5599;52.210;21.046;2022-11-11T07:30:59;10.20;99.90
11091;DHT22;5599;52.210;21.046;2022-11-11T07:33:48;10.20;99.90
11091;DHT22;5599;52.210;21.046;2022-11-11T07:36:36;10.20;99.90
11091;DHT22;5599;52.210;21.046;2022-11-11T07:39:23;10.30;99.90
11091;DHT22;5599;52.210;21.046;2022-11-11T07:42:11;10.30;99.90
11091;DHT22;5599;52.210;21.046;2022-11-11T07:45:16;10.40;99.90
11091;DHT22;5599;52.210;21.046;2022-11-11T07:48:08;10.50;99.90
11091;DHT22;5599;52.210;21.046;2022-11-11T07:50:57;10.50;99.90
11091;DHT22;5599;52.210;21.046;2022-11-11T07:53:45;10.50;99.90
11091;DHT22;5599;52.210;21.046;2022-11-11T07:56:34;10.60;99.90
11091;DHT22;5599;52.210;21.046;2022-11-11T07:59:22;10.60;99.90
11091;DHT22;5599;52.210;21.046;2022-11-11T08:02:10;10.70;1.00
11091;DHT22;5599;52.210;21.046;2022-11-11T08:04:58;10.70;6.10
11091;DHT22;5599;52.210;21.046;2022-11-11T08:07:47;10.70;99.90
11091;DHT22;5599;52.210;21.046;2022-11-11T08:10:35;10.80;45.10
11091;DHT22;5599;52.210;21.046;2022-11-11T08:13:23;10.80;1.00
11091;DHT22;5599;52.210;21.046;2022-11-11T08:16:29;10.80;38.80
11091;DHT22;5599;52.210;21.046;2022-11-11T08:19:16;10.90;66.30
11091;DHT22;5599;52.210;21.046;2022-11-11T08:22:04;11.00;30.10
11091;DHT22;5599;52.210;21.046;2022-11-11T08:24:53;11.00;1.00
11091;DHT22;5599;52.210;21.046;2022-11-11T08:27:48;11.20;1.00
11091;DHT22;5599;52.210;21.046;2022-11-11T08:30:36;11.30;1.00
11091;DHT22;5599;52.210;21.046;2022-11-11T08:33:25;11.40;99.90
11091;DHT22;5599;52.210;21.046;2022-11-11T08:36:21;11.50;99.90
11091;DHT22;5599;52.210;21.046;2022-11-11T08:39:10;11.60;1.00
11091;DHT22;5599;52.210;21.046;2022-11-11T08:41:59;11.70;1.00
11091;DHT22;5599;52.210;21.046;2022-11-11T08:44:47;11.80;1.00
11091;DHT22;5599;52.210;21.046;2022-11-11T08:47:37;11.90;99.90
11091;DHT22;5599;52.210;21.046;2022-11-11T08:50:25;11.90;99.90
11091;DHT22;5599;52.210;21.046;2022-11-11T08:53:13;12.00;1.00
11091;DHT22;5599;52.210;21.046;2022-11-11T08:56:03;12.00;1.00
11091;DHT22;5599;52.210;21.046;2022-11-11T08:58:53;12.00;1.00
11091;DHT22;5599;52.210;21.046;2022-11-11T09:01:41;12.10;99.90
11091;DHT22;5599;52.210;21.046;2022-11-11T09:04:30;12.20;99.90
11091;DHT22;5599;52.210;21.046;2022-11-11T09:07:38;12.30;99.90
11091;DHT22;5599;52.210;21.046;2022-11-11T09:10:25;12.30;1.00
11091;DHT22;5599;52.210;21.046;2022-11-11T09:13:13;12.40;1.00
11091;DHT22;5599;52.210;21.046;2022-11-11T09:16:02;12.40;1.00
11091;DHT22;5599;52.210;21.046;2022-11-11T09:18:50;12.50;1.00
11091;DHT22;5599;52.210;21.046;2022-11-11T09:21:37;12.60;99.90
11091;DHT22;5599;52.210;21.046;2022-11-11T09:24:25;12.60;5.10
11091;DHT22;5599;52.210;21.046;2022-11-11T09:27:13;12.70;99.90
11091;DHT22;5599;52.210;21.046;2022-11-11T09:30:00;12.70;1.00
11091;DHT22;5599;52.210;21.046;2022-11-11T09:32:50;12.70;1.00
11091;DHT22;5599;52.210;21.046;2022-11-11T09:35:37;12.70;99.90
11091;DHT22;5599;52.210;21.046;2022-11-11T09:38:25;12.70;1.00
11091;DHT22;5599;52.210;21.046;2022-11-11T09:41:19;12.80;99.90
11091;DHT22;5599;52.210;21.046;2022-11-11T09:44:20;12.80;99.90
11091;DHT22;5599;52.210;21.046;2022-11-11T09:47:15;12.80;96.00
11091;DHT22;5599;52.210;21.046;2022-11-11T09:50:11;12.90;99.90
11091;DHT22;5599;52.210;21.046;2022-11-11T09:53:06;12.90;99.90
11091;DHT22;5599;52.210;21.046;2022-11-11T09:56:01;13.00;1.00
11091;DHT22;5599;52.210;21.046;2022-11-11T09:59:16;13.00;1.00
11091;DHT22;5599;52.210;21.046;2022-11-11T10:02:14;12.90;99.90
11091;DHT22;5599;52.210;21.046;2022-11-11T10:05:10;13.00;99.90
11091;DHT22;5599;52.210;21.046;2022-11-11T10:08:03;13.00;99.90
11091;DHT22;5599;52.210;21.046;2022-11-11T10:10:54;13.00;99.90
11091;DHT22;5599;52.210;21.046;2022-11-11T10:14:35;13.00;1.00
11091;DHT22;5599;52.210;21.046;2022-11-11T10:18:51;12.90;1.00
11091;DHT22;5599;52.210;21.046;2022-11-11T10:27:50;12.90;4.00
11091;DHT22;5599;52.210;21.046;2022-11-11T10:42:07;12.90;99.90
11091;DHT22;5599;52.210;21.046;2022-11-11T11:04:04;13.30;99.90
11091;DHT22;5599;52.210;21.046;2022-11-11T11:07:58;13.30;1.00
11091;DHT22;5599;52.210;21.046;2022-11-11T11:10:49;13.40;1.00
11091;DHT22;5599;52.210;21.046;2022-11-11T11:13:42;13.40;99.90
11091;DHT22;5599;52.210;21.046;2022-11-11T11:16:36;13.50;1.00
11091;DHT22;5599;52.210;21.046;2022-11-11T12:11:15;13.30;1.00
11091;DHT22;5599;52.210;21.046;2022-11-11T12:18:18;13.20;99.90
11091;DHT22;5599;52.210;21.046;2022-11-11T12:21:14;13.20;99.90
11091;DHT22;5599;52.210;21.046;2022-11-11T12:24:08;13.30;1.00
11091;DHT22;5599;52.210;21.046;2022-11-11T12:27:19;13.30;99.90
11091;DHT22;5599;52.210;21.046;2022-11-11T12:30:47;13.30;99.90
11091;DHT22;5599;52.210;21.046;2022-11-11T12:33:56;13.40;1.00
11091;DHT22;5599;52.210;21.046;2022-11-11T12:36:57;13.30;99.90
11091;DHT22;5599;52.210;21.046;2022-11-11T12:39:59;13.30;99.90
11091;DHT22;5599;52.210;21.046;2022-11-11T12:43:19;13.30;99.90
11091;DHT22;5599;52.210;21.046;2022-11-11T12:46:13;13.30;1.00
11091;DHT22;5599;52.210;21.046;2022-11-11T12:49:23;13.30;1.00
11091;DHT22;5599;52.210;21.046;2022-11-11T12:52:32;13.30;99.90
11091;DHT22;5599;52.210;21.046;2022-11-11T12:55:34;13.20;99.90
11091;DHT22;5599;52.210;21.046;2022-11-11T12:58:35;13.20;99.90
11091;DHT22;5599;52.210;21.046;2022-11-11T13:01:37;13.20;99.90
11091;DHT22;5599;52.210;21.046;2022-11-11T13:04:47;13.10;55.60
11091;DHT22;5599;52.210;21.046;2022-11-11T13:08:02;13.00;99.90
11091;DHT22;5599;52.210;21.046;2022-11-11T13:11:01;12.90;99.90
11091;DHT22;5599;52.210;21.046;2022-11-11T13:14:09;12.90;1.00
11091;DHT22;5599;52.210;21.046;2022-11-11T13:17:10;13.00;1.00
11091;DHT22;5599;52.210;21.046;2022-11-11T13:20:02;13.00;1.00
11091;DHT22;5599;52.210;21.046;2022-11-11T13:22:52;12.90;1.00
11091;DHT22;5599;52.210;21.046;2022-11-11T13:25:45;12.90;1.00
11091;DHT22;5599;52.210;21.046;2022-11-11T13:28:40;12.90;1.00
11091;DHT22;5599;52.210;21.046;2022-11-11T13:31:41;12.90;1.00
11091;DHT22;5599;52.210;21.046;2022-11-11T13:34:31;12.90;99.90
11091;DHT22;5599;52.210;21.046;2022-11-11T13:37:25;12.80;49.00
11091;DHT22;5599;52.210;21.046;2022-11-11T13:40:31;12.70;99.90
11091;DHT22;5599;52.210;21.046;2022-11-11T13:43:23;12.70;99.90
11091;DHT22;5599;52.210;21.046;2022-11-11T13:46:33;12.60;1.00
11091;DHT22;5599;52.210;21.046;2022-11-11T13:49:25;12.60;1.00
11091;DHT22;5599;52.210;21.046;2022-11-11T13:52:21;12.60;1.00
11091;DHT22;5599;52.210;21.046;2022-11-11T13:55:24;12.60;1.00
11091;DHT22;5599;52.210;21.046;2022-11-11T13:58:22;12.60;1.00
11091;DHT22;5599;52.210;21.046;2022-11-11T14:01:10;12.60;95.50
11091;DHT22;5599;52.210;21.046;2022-11-11T14:04:02;12.50;1.00
11091;DHT22;5599;52.210;21.046;2022-11-11T14:06:52;12.50;99.90
11091;DHT22;5599;52.210;21.046;2022-11-11T14:10:05;12.40;99.90
11091;DHT22;5599;52.210;21.046;2022-11-11T14:12:54;12.40;99.90
11091;DHT22;5599;52.210;21.046;2022-11-11T14:15:44;12.40;99.90
11091;DHT22;5599;52.210;21.046;2022-11-11T14:18:44;12.30;1.00
11091;DHT22;5599;52.210;21.046;2022-11-11T14:21:48;12.30;99.90
11091;DHT22;5599;52.210;21.046;2022-11-11T14:24:45;12.20;99.90
11091;DHT22;5599;52.210;21.046;2022-11-11T14:27:36;12.30;41.60
11091;DHT22;5599;52.210;21.046;2022-11-11T14:30:36;12.30;17.20
11091;DHT22;5599;52.210;21.046;2022-11-11T14:33:39;12.30;1.00
11091;DHT22;5599;52.210;21.046;2022-11-11T14:36:36;12.20;60.00
11091;DHT22;5599;52.210;21.046;2022-11-11T14:39:34;12.20;1.00
11091;DHT22;5599;52.210;21.046;2022-11-11T14:42:46;12.10;1.00
11091;DHT22;5599;52.210;21.046;2022-11-11T14:46:05;12.10;1.00
11091;DHT22;5599;52.210;21.046;2022-11-11T14:49:01;12.10;1.00
11091;DHT22;5599;52.210;21.046;2022-11-11T14:51:55;12.00;95.10
11091;DHT22;5599;52.210;21.046;2022-11-11T14:54:54;12.00;73.60
11091;DHT22;5599;52.210;21.046;2022-11-11T14:57:48;12.00;99.90
11091;DHT22;5599;52.210;21.046;2022-11-11T15:00:45;11.90;1.00
11091;DHT22;5599;52.210;21.046;2022-11-11T15:03:37;11.90;1.00
11091;DHT22;5599;52.210;21.046;2022-11-11T15:06:32;11.90;1.00
11091;DHT22;5599;52.210;21.046;2022-11-11T15:09:37;11.90;23.60
11091;DHT22;5599;52.210;21.046;2022-11-11T15:12:39;11.80;1.00
11091;DHT22;5599;52.210;21.046;2022-11-11T15:15:40;11.90;99.90
11091;DHT22;5599;52.210;21.046;2022-11-11T15:18:50;11.80;1.00
11091;DHT22;5599;52.210;21.046;2022-11-11T15:21:45;11.80;99.90
11091;DHT22;5599;52.210;21.046;2022-11-11T15:24:41;11.80;1.00
11091;DHT22;5599;52.210;21.046;2022-11-11T15:27:38;11.80;99.90
11091;DHT22;5599;52.210;21.046;2022-11-11T15:30:47;11.70;1.00
11091;DHT22;5599;52.210;21.046;2022-11-11T15:33:45;11.60;1.00
11091;DHT22;5599;52.210;21.046;2022-11-11T15:36:51;11.60;99.90
11091;DHT22;5599;52.210;21.046;2022-11-11T15:39:43;11.60;99.90
11091;DHT22;5599;52.210;21.046;2022-11-11T15:42:40;11.40;1.00
11091;DHT22;5599;52.210;21.046;2022-11-11T15:45:33;11.40;1.00
11091;DHT22;5599;52.210;21.046;2022-11-11T15:48:26;11.40;1.00
11091;DHT22;5599;52.210;21.046;2022-11-11T15:51:21;11.30;99.90
11091;DHT22;5599;52.210;21.046;2022-11-11T15:54:19;11.20;24.60
11091;DHT22;5599;52.210;21.046;2022-11-11T15:57:21;11.20;99.90
11091;DHT22;5599;52.210;21.046;2022-11-11T16:00:27;11.20;99.90
11091;DHT22;5599;52.210;21.046;2022-11-11T16:03:18;11.20;1.00
11091;DHT22;5599;52.210;21.046;2022-11-11T16:06:16;11.10;1.00
11091;DHT22;5599;52.210;21.046;2022-11-11T16:09:16;11.20;67.50
11091;DHT22;5599;52.210;21.046;2022-11-11T16:12:26;11.30;99.90
11091;DHT22;5599;52.210;21.046;2022-11-11T16:15:22;11.30;1.00
11091;DHT22;5599;52.210;21.046;2022-11-11T16:18:16;11.30;1.00
11091;DHT22;5599;52.210;21.046;2022-11-11T16:21:15;11.30;99.90
11091;DHT22;5599;52.210;21.046;2022-11-11T16:24:18;11.40;1.00
11091;DHT22;5599;52.210;21.046;2022-11-11T16:27:31;11.40;1.00
11091;DHT22;5599;52.210;21.046;2022-11-11T16:30:30;11.40;99.90
11091;DHT22;5599;52.210;21.046;2022-11-11T16:33:32;11.40;99.90
11091;DHT22;5599;52.210;21.046;2022-11-11T16:36:27;11.40;99.90
11091;DHT22;5599;52.210;21.046;2022-11-11T16:39:20;11.40;99.90
11091;DHT22;5599;52.210;21.046;2022-11-11T16:42:18;11.40;1.00
11091;DHT22;5599;52.210;21.046;2022-11-11T16:45:18;11.40;1.00
11091;DHT22;5599;52.210;21.046;2022-11-11T16:48:44;11.40;1.00
11091;DHT22;5599;52.210;21.046;2022-11-11T16:52:56;11.40;99.90
11091;DHT22;5599;52.210;21.046;2022-11-11T16:55:45;11.30;1.00
11091;DHT22;5599;52.210;21.046;2022-11-11T16:58:35;11.30;1.00
11091;DHT22;5599;52.210;21.046;2022-11-11T17:01:41;11.30;34.60
11091;DHT22;5599;52.210;21.046;2022-11-11T17:04:45;11.40;1.00
11091;DHT22;5599;52.210;21.046;2022-11-11T17:07:53;11.40;1.00
11091;DHT22;5599;52.210;21.046;2022-11-11T17:10:42;11.40;1.00
11091;DHT22;5599;52.210;21.046;2022-11-11T17:13:32;11.40;1.00
11091;DHT22;5599;52.210;21.046;2022-11-11T17:16:30;11.50;1.00
11091;DHT22;5599;52.210;21.046;2022-11-11T17:19:18;11.40;1.00
11091;DHT22;5599;52.210;21.046;2022-11-11T17:22:09;11.50;99.90
11091;DHT22;5599;52.210;21.046;2022-11-11T17:25:01;11.40;99.90
11091;DHT22;5599;52.210;21.046;2022-11-11T17:28:15;11.40;1.00
11091;DHT22;5599;52.210;21.046;2022-11-11T17:31:11;11.40;1.00
11091;DHT22;5599;52.210;21.046;2022-11-11T17:34:41;11.30;1.00
11091;DHT22;5599;52.210;21.046;2022-11-11T17:38:00;11.40;1.00
11091;DHT22;5599;52.210;21.046;2022-11-11T17:42:20;11.40;1.00
11091;DHT22;5599;52.210;21.046;2022-11-11T17:45:19;11.40;1.00
11091;DHT22;5599;52.210;21.046;2022-11-11T17:48:19;11.40;1.00
11091;DHT22;5599;52.210;21.046;2022-11-11T17:51:07;11.40;1.00
11091;DHT22;5599;52.210;21.046;2022-11-11T17:53:55;11.30;1.00
11091;DHT22;5599;52.210;21.046;2022-11-11T17:56:44;11.40;1.00
11091;DHT22;5599;52.210;21.046;2022-11-11T18:00:34;11.40;1.00
11091;DHT22;5599;52.210;21.046;2022-11-11T18:03:29;11.30;1.00
11091;DHT22;5599;52.210;21.046;2022-11-11T18:06:23;11.40;1.00
11091;DHT22;5599;52.210;21.046;2022-11-11T18:09:15;11.40;1.00
11091;DHT22;5599;52.210;21.046;2022-11-11T18:12:10;11.40;1.00
11091;DHT22;5599;52.210;21.046;2022-11-11T18:15:00;11.40;1.00
11091;DHT22;5599;52.210;21.046;2022-11-11T18:17:51;11.30;1.00
11091;DHT22;5599;52.210;21.046;2022-11-11T18:20:41;11.30;1.00
11091;DHT22;5599;52.210;21.046;2022-11-11T18:23:36;11.30;9.30
11091;DHT22;5599;52.210;21.046;2022-11-11T18:26:25;11.40;1.00
11091;DHT22;5599;52.210;21.046;2022-11-11T18:29:15;11.30;99.90
11091;DHT22;5599;52.210;21.046;2022-11-11T18:32:25;11.30;25.60
11091;DHT22;5599;52.210;21.046;2022-11-11T18:35:17;11.20;99.90
11091;DHT22;5599;52.210;21.046;2022-11-11T18:39:55;11.20;35.80
11091;DHT22;5599;52.210;21.046;2022-11-11T18:43:34;11.10;99.90
11091;DHT22;5599;52.210;21.046;2022-11-11T18:46:39;11.20;99.90
11091;DHT22;5599;52.210;21.046;2022-11-11T18:49:27;11.20;99.90
11091;DHT22;5599;52.210;21.046;2022-11-11T18:52:17;11.30;99.90
11091;DHT22;5599;52.210;21.046;2022-11-11T18:55:07;11.30;99.90
11091;DHT22;5599;52.210;21.046;2022-11-11T18:57:57;11.20;99.90
11091;DHT22;5599;52.210;21.046;2022-11-11T19:00:46;11.30;99.90
11091;DHT22;5599;52.210;21.046;2022-11-11T19:03:36;11.30;99.90
11091;DHT22;5599;52.210;21.046;2022-11-11T19:06:27;11.30;99.90
11091;DHT22;5599;52.210;21.046;2022-11-11T19:09:21;11.30;99.90
11091;DHT22;5599;52.210;21.046;2022-11-11T19:12:16;11.30;99.90
11091;DHT22;5599;52.210;21.046;2022-11-11T19:15:14;11.30;99.90
11091;DHT22;5599;52.210;21.046;2022-11-11T19:18:46;11.40;99.90
11091;DHT22;5599;52.210;21.046;2022-11-11T19:21:53;11.40;1.00
11091;DHT22;5599;52.210;21.046;2022-11-11T19:24:53;11.20;99.90
11091;DHT22;5599;52.210;21.046;2022-11-11T19:27:45;11.20;1.00
11091;DHT22;5599;52.210;21.046;2022-11-11T19:30:33;11.20;1.00
11091;DHT22;5599;52.210;21.046;2022-11-11T19:33:23;11.10;1.00
11091;DHT22;5599;52.210;21.046;2022-11-11T19:36:16;11.10;1.00
11091;DHT22;5599;52.210;21.046;2022-11-11T19:39:05;11.20;1.00
11091;DHT22;5599;52.210;21.046;2022-11-11T19:41:55;11.10;1.00
11091;DHT22;5599;52.210;21.046;2022-11-11T19:44:43;11.10;1.00
11091;DHT22;5599;52.210;21.046;2022-11-11T19:47:42;11.00;1.00
11091;DHT22;5599;52.210;21.046;2022-11-11T19:51:06;11.00;1.00
11091;DHT22;5599;52.210;21.046;2022-11-11T19:54:29;11.00;1.00
11091;DHT22;5599;52.210;21.046;2022-11-11T20:07:52;11.00;1.00
11091;DHT22;5599;52.210;21.046;2022-11-11T20:10:42;10.90;1.00
11091;DHT22;5599;52.210;21.046;2022-11-11T20:13:32;11.00;1.00
11091;DHT22;5599;52.210;21.046;2022-11-11T20:16:27;11.00;1.00
11091;DHT22;5599;52.210;21.046;2022-11-11T20:19:15;11.00;1.00
11091;DHT22;5599;52.210;21.046;2022-11-11T20:22:04;11.10;1.00
11091;DHT22;5599;52.210;21.046;2022-11-11T20:24:56;11.00;1.00
11091;DHT22;5599;52.210;21.046;2022-11-11T20:28:30;11.00;1.00
11091;DHT22;5599;52.210;21.046;2022-11-11T20:31:21;11.00;1.00
11091;DHT22;5599;52.210;21.046;2022-11-11T20:34:10;11.10;1.00
11091;DHT22;5599;52.210;21.046;2022-11-11T20:37:03;11.00;1.00